sensor_id;sensor_type;location;lat;lon;timestamp;P1;durP1;ratioP1;P2;durP2;ratioP2
49860;SDS011;35761;48.826;9.238;2024-03-07T00:02:14;37.28;;;23.10;;
49860;SDS011;35761;48.826;9.238;2024-03-07T00:04:42;53.17;;;24.00;;
49860;SDS011;35761;48.826;9.238;2024-03-07T00:07:08;36.35;;;22.92;;
49860;SDS011;35761;48.826;9.238;2024-03-07T00:09:34;42.35;;;24.00;;
49860;SDS011;35761;48.826;9.238;2024-03-07T00:12:00;38.38;;;22.73;;
49860;SDS011;35761;48.826;9.238;2024-03-07T00:14:26;35.20;;;21.95;;
49860;SDS011;35761;48.826;9.238;2024-03-07T00:16:52;34.78;;;22.33;;
49860;SDS011;35761;48.826;9.238;2024-03-07T00:19:19;41.42;;;22.70;;
49860;SDS011;35761;48.826;9.238;2024-03-07T00:21:44;37.95;;;22.55;;
49860;SDS011;35761;48.826;9.238;2024-03-07T00:24:10;36.13;;;22.77;;
49860;SDS011;35761;48.826;9.238;2024-03-07T00:26:35;39.00;;;23.45;;
49860;SDS011;35761;48.826;9.238;2024-03-07T00:29:01;35.25;;;22.88;;
49860;SDS011;35761;48.826;9.238;2024-03-07T00:31:27;39.55;;;22.25;;
49860;SDS011;35761;48.826;9.238;2024-03-07T00:33:54;37.67;;;22.98;;
49860;SDS011;35761;48.826;9.238;2024-03-07T00:36:21;34.22;;;23.23;;
49860;SDS011;35761;48.826;9.238;2024-03-07T00:38:47;34.63;;;23.05;;
49860;SDS011;35761;48.826;9.238;2024-03-07T00:41:12;38.05;;;23.52;;
49860;SDS011;35761;48.826;9.238;2024-03-07T00:43:38;33.00;;;22.67;;
49860;SDS011;35761;48.826;9.238;2024-03-07T00:46:03;37.05;;;23.02;;
49860;SDS011;35761;48.826;9.238;2024-03-07T00:48:31;38.08;;;23.25;;
49860;SDS011;35761;48.826;9.238;2024-03-07T00:50:57;35.75;;;23.52;;
49860;SDS011;35761;48.826;9.238;2024-03-07T00:53:22;41.45;;;24.60;;
49860;SDS011;35761;48.826;9.238;2024-03-07T00:55:48;37.70;;;25.27;;
49860;SDS011;35761;48.826;9.238;2024-03-07T00:58:13;39.80;;;24.92;;
49860;SDS011;35761;48.826;9.238;2024-03-07T01:00:38;42.05;;;26.23;;
49860;SDS011;35761;48.826;9.238;2024-03-07T01:03:08;40.10;;;25.65;;
49860;SDS011;35761;48.826;9.238;2024-03-07T01:05:36;42.65;;;26.23;;
49860;SDS011;35761;48.826;9.238;2024-03-07T01:08:03;39.75;;;26.65;;
49860;SDS011;35761;48.826;9.238;2024-03-07T01:10:29;42.78;;;26.20;;
49860;SDS011;35761;48.826;9.238;2024-03-07T01:12:55;41.85;;;26.27;;
49860;SDS011;35761;48.826;9.238;2024-03-07T01:15:23;40.10;;;26.23;;
49860;SDS011;35761;48.826;9.238;2024-03-07T01:17:48;35.60;;;25.20;;
49860;SDS011;35761;48.826;9.238;2024-03-07T01:20:14;41.38;;;26.05;;
49860;SDS011;35761;48.826;9.238;2024-03-07T01:22:40;40.35;;;26.02;;
49860;SDS011;35761;48.826;9.238;2024-03-07T01:25:08;40.28;;;25.50;;
49860;SDS011;35761;48.826;9.238;2024-03-07T01:27:34;40.10;;;24.83;;
49860;SDS011;35761;48.826;9.238;2024-03-07T01:30:00;38.15;;;25.40;;
49860;SDS011;35761;48.826;9.238;2024-03-07T01:32:28;38.22;;;26.38;;
49860;SDS011;35761;48.826;9.238;2024-03-07T01:34:54;40.90;;;26.23;;
49860;SDS011;35761;48.826;9.238;2024-03-07T01:37:20;42.55;;;26.38;;
49860;SDS011;35761;48.826;9.238;2024-03-07T01:39:45;40.83;;;26.05;;
49860;SDS011;35761;48.826;9.238;2024-03-07T01:42:11;40.50;;;25.88;;
49860;SDS011;35761;48.826;9.238;2024-03-07T01:44:37;38.42;;;25.83;;
49860;SDS011;35761;48.826;9.238;2024-03-07T01:47:07;44.10;;;26.98;;
49860;SDS011;35761;48.826;9.238;2024-03-07T01:49:41;42.90;;;26.45;;
49860;SDS011;35761;48.826;9.238;2024-03-07T01:52:07;41.38;;;27.00;;
49860;SDS011;35761;48.826;9.238;2024-03-07T01:54:33;44.70;;;28.35;;
49860;SDS011;35761;48.826;9.238;2024-03-07T01:57:00;43.80;;;28.55;;
49860;SDS011;35761;48.826;9.238;2024-03-07T01:59:26;42.35;;;28.35;;
49860;SDS011;35761;48.826;9.238;2024-03-07T02:01:55;49.35;;;29.27;;
49860;SDS011;35761;48.826;9.238;2024-03-07T02:04:21;45.35;;;28.65;;
49860;SDS011;35761;48.826;9.238;2024-03-07T02:06:47;45.03;;;27.88;;
49860;SDS011;35761;48.826;9.238;2024-03-07T02:09:12;48.40;;;29.38;;
49860;SDS011;35761;48.826;9.238;2024-03-07T02:11:39;47.95;;;27.83;;
49860;SDS011;35761;48.826;9.238;2024-03-07T02:14:05;42.97;;;27.83;;
49860;SDS011;35761;48.826;9.238;2024-03-07T02:16:30;38.92;;;27.42;;
49860;SDS011;35761;48.826;9.238;2024-03-07T02:18:56;48.58;;;29.70;;
49860;SDS011;35761;48.826;9.238;2024-03-07T02:21:24;58.38;;;29.85;;
49860;SDS011;35761;48.826;9.238;2024-03-07T02:23:49;42.58;;;28.20;;
49860;SDS011;35761;48.826;9.238;2024-03-07T02:26:15;45.15;;;28.95;;
49860;SDS011;35761;48.826;9.238;2024-03-07T02:28:40;47.17;;;29.02;;
49860;SDS011;35761;48.826;9.238;2024-03-07T02:31:06;47.72;;;29.02;;
49860;SDS011;35761;48.826;9.238;2024-03-07T02:33:31;49.20;;;29.52;;
49860;SDS011;35761;48.826;9.238;2024-03-07T02:35:57;45.55;;;29.50;;
49860;SDS011;35761;48.826;9.238;2024-03-07T02:38:22;51.25;;;30.00;;
49860;SDS011;35761;48.826;9.238;2024-03-07T02:40:48;46.03;;;29.88;;
49860;SDS011;35761;48.826;9.238;2024-03-07T02:43:13;46.53;;;30.08;;
49860;SDS011;35761;48.826;9.238;2024-03-07T02:45:39;52.28;;;30.33;;
49860;SDS011;35761;48.826;9.238;2024-03-07T02:48:04;48.08;;;28.55;;
49860;SDS011;35761;48.826;9.238;2024-03-07T02:50:37;45.58;;;29.05;;
49860;SDS011;35761;48.826;9.238;2024-03-07T02:53:06;46.10;;;29.27;;
49860;SDS011;35761;48.826;9.238;2024-03-07T02:55:32;50.25;;;29.98;;
49860;SDS011;35761;48.826;9.238;2024-03-07T02:57:57;48.20;;;30.50;;
49860;SDS011;35761;48.826;9.238;2024-03-07T03:00:24;46.40;;;28.67;;
49860;SDS011;35761;48.826;9.238;2024-03-07T03:02:55;49.38;;;31.42;;
49860;SDS011;35761;48.826;9.238;2024-03-07T03:05:21;47.10;;;31.45;;
49860;SDS011;35761;48.826;9.238;2024-03-07T03:07:47;59.28;;;31.92;;
49860;SDS011;35761;48.826;9.238;2024-03-07T03:10:20;45.55;;;31.17;;
49860;SDS011;35761;48.826;9.238;2024-03-07T03:12:57;47.92;;;31.45;;
49860;SDS011;35761;48.826;9.238;2024-03-07T03:15:24;49.17;;;30.40;;
49860;SDS011;35761;48.826;9.238;2024-03-07T03:17:49;52.33;;;32.55;;
49860;SDS011;35761;48.826;9.238;2024-03-07T03:20:15;46.92;;;29.88;;
49860;SDS011;35761;48.826;9.238;2024-03-07T03:22:51;46.53;;;30.13;;
49860;SDS011;35761;48.826;9.238;2024-03-07T03:25:22;55.00;;;31.83;;
49860;SDS011;35761;48.826;9.238;2024-03-07T03:27:48;51.90;;;32.78;;
49860;SDS011;35761;48.826;9.238;2024-03-07T03:30:14;51.10;;;32.00;;
49860;SDS011;35761;48.826;9.238;2024-03-07T03:32:41;53.92;;;33.40;;
49860;SDS011;35761;48.826;9.238;2024-03-07T03:35:07;49.45;;;31.35;;
49860;SDS011;35761;48.826;9.238;2024-03-07T03:37:39;50.63;;;32.20;;
49860;SDS011;35761;48.826;9.238;2024-03-07T03:40:06;54.38;;;32.25;;
49860;SDS011;35761;48.826;9.238;2024-03-07T03:42:34;47.70;;;31.58;;
49860;SDS011;35761;48.826;9.238;2024-03-07T03:45:01;51.47;;;34.25;;
49860;SDS011;35761;48.826;9.238;2024-03-07T03:47:32;49.67;;;31.85;;
49860;SDS011;35761;48.826;9.238;2024-03-07T03:50:02;46.83;;;31.23;;
49860;SDS011;35761;48.826;9.238;2024-03-07T03:52:28;52.50;;;30.33;;
49860;SDS011;35761;48.826;9.238;2024-03-07T03:54:54;49.67;;;32.00;;
49860;SDS011;35761;48.826;9.238;2024-03-07T03:57:19;52.88;;;31.08;;
49860;SDS011;35761;48.826;9.238;2024-03-07T03:59:45;47.55;;;30.88;;
49860;SDS011;35761;48.826;9.238;2024-03-07T04:02:11;50.80;;;32.55;;
49860;SDS011;35761;48.826;9.238;2024-03-07T04:04:42;55.30;;;32.65;;
49860;SDS011;35761;48.826;9.238;2024-03-07T04:07:08;53.40;;;34.08;;
49860;SDS011;35761;48.826;9.238;2024-03-07T04:09:33;51.92;;;33.10;;
49860;SDS011;35761;48.826;9.238;2024-03-07T04:11:59;52.67;;;33.08;;
49860;SDS011;35761;48.826;9.238;2024-03-07T04:14:24;52.67;;;32.42;;
49860;SDS011;35761;48.826;9.238;2024-03-07T04:16:50;59.97;;;32.92;;
49860;SDS011;35761;48.826;9.238;2024-03-07T04:19:16;51.95;;;32.03;;
49860;SDS011;35761;48.826;9.238;2024-03-07T04:21:42;51.38;;;33.25;;
49860;SDS011;35761;48.826;9.238;2024-03-07T04:24:09;52.65;;;31.80;;
49860;SDS011;35761;48.826;9.238;2024-03-07T04:26:34;52.47;;;32.75;;
49860;SDS011;35761;48.826;9.238;2024-03-07T04:29:00;54.80;;;32.72;;
49860;SDS011;35761;48.826;9.238;2024-03-07T04:31:25;51.22;;;31.45;;
49860;SDS011;35761;48.826;9.238;2024-03-07T04:33:51;51.67;;;32.30;;
49860;SDS011;35761;48.826;9.238;2024-03-07T04:36:16;53.35;;;31.63;;
49860;SDS011;35761;48.826;9.238;2024-03-07T04:38:42;52.17;;;32.28;;
49860;SDS011;35761;48.826;9.238;2024-03-07T04:41:10;55.00;;;31.80;;
49860;SDS011;35761;48.826;9.238;2024-03-07T04:43:36;49.30;;;31.95;;
49860;SDS011;35761;48.826;9.238;2024-03-07T04:46:02;54.90;;;33.75;;
49860;SDS011;35761;48.826;9.238;2024-03-07T04:48:28;45.40;;;31.25;;
49860;SDS011;35761;48.826;9.238;2024-03-07T04:50:53;52.15;;;34.22;;
49860;SDS011;35761;48.826;9.238;2024-03-07T04:53:19;49.78;;;32.17;;
49860;SDS011;35761;48.826;9.238;2024-03-07T04:55:44;51.88;;;33.15;;
49860;SDS011;35761;48.826;9.238;2024-03-07T04:58:10;51.88;;;32.75;;
49860;SDS011;35761;48.826;9.238;2024-03-07T05:00:35;54.85;;;31.90;;
49860;SDS011;35761;48.826;9.238;2024-03-07T05:03:01;50.50;;;31.70;;
49860;SDS011;35761;48.826;9.238;2024-03-07T05:05:27;53.13;;;30.85;;
49860;SDS011;35761;48.826;9.238;2024-03-07T05:07:52;48.55;;;30.50;;
49860;SDS011;35761;48.826;9.238;2024-03-07T05:10:18;50.53;;;32.08;;
49860;SDS011;35761;48.826;9.238;2024-03-07T05:12:43;50.28;;;31.73;;
49860;SDS011;35761;48.826;9.238;2024-03-07T05:15:09;48.35;;;31.35;;
49860;SDS011;35761;48.826;9.238;2024-03-07T05:17:35;50.45;;;31.55;;
49860;SDS011;35761;48.826;9.238;2024-03-07T05:20:03;49.95;;;32.00;;
49860;SDS011;35761;48.826;9.238;2024-03-07T05:22:35;52.10;;;32.20;;
49860;SDS011;35761;48.826;9.238;2024-03-07T05:25:05;51.38;;;31.77;;
49860;SDS011;35761;48.826;9.238;2024-03-07T05:27:31;55.10;;;33.28;;
49860;SDS011;35761;48.826;9.238;2024-03-07T05:29:58;49.22;;;32.40;;
49860;SDS011;35761;48.826;9.238;2024-03-07T05:32:24;49.90;;;31.67;;
49860;SDS011;35761;48.826;9.238;2024-03-07T05:34:51;53.88;;;31.58;;
49860;SDS011;35761;48.826;9.238;2024-03-07T05:37:18;49.20;;;31.98;;
49860;SDS011;35761;48.826;9.238;2024-03-07T05:39:47;52.67;;;32.03;;
49860;SDS011;35761;48.826;9.238;2024-03-07T05:42:13;48.95;;;30.75;;
49860;SDS011;35761;48.826;9.238;2024-03-07T05:44:40;51.58;;;31.75;;
49860;SDS011;35761;48.826;9.238;2024-03-07T05:47:06;52.63;;;31.30;;
49860;SDS011;35761;48.826;9.238;2024-03-07T05:49:32;54.22;;;32.10;;
49860;SDS011;35761;48.826;9.238;2024-03-07T05:51:58;48.67;;;30.17;;
49860;SDS011;35761;48.826;9.238;2024-03-07T05:54:23;54.65;;;31.38;;
49860;SDS011;35761;48.826;9.238;2024-03-07T05:56:49;54.95;;;31.65;;
49860;SDS011;35761;48.826;9.238;2024-03-07T05:59:15;50.28;;;32.58;;
49860;SDS011;35761;48.826;9.238;2024-03-07T06:01:42;55.38;;;31.17;;
49860;SDS011;35761;48.826;9.238;2024-03-07T06:04:09;56.85;;;33.80;;
49860;SDS011;35761;48.826;9.238;2024-03-07T06:06:35;51.83;;;31.63;;
49860;SDS011;35761;48.826;9.238;2024-03-07T06:09:02;51.80;;;32.75;;
49860;SDS011;35761;48.826;9.238;2024-03-07T06:11:34;51.08;;;30.15;;
49860;SDS011;35761;48.826;9.238;2024-03-07T06:14:01;52.25;;;30.33;;
49860;SDS011;35761;48.826;9.238;2024-03-07T06:16:31;48.75;;;30.38;;
49860;SDS011;35761;48.826;9.238;2024-03-07T06:19:02;52.85;;;31.27;;
49860;SDS011;35761;48.826;9.238;2024-03-07T06:21:28;51.88;;;31.08;;
49860;SDS011;35761;48.826;9.238;2024-03-07T06:23:56;48.75;;;30.58;;
49860;SDS011;35761;48.826;9.238;2024-03-07T06:26:28;53.45;;;32.03;;
49860;SDS011;35761;48.826;9.238;2024-03-07T06:29:05;51.08;;;30.40;;
49860;SDS011;35761;48.826;9.238;2024-03-07T06:31:31;51.22;;;30.67;;
49860;SDS011;35761;48.826;9.238;2024-03-07T06:33:57;47.45;;;30.02;;
49860;SDS011;35761;48.826;9.238;2024-03-07T06:36:22;57.55;;;31.58;;
49860;SDS011;35761;48.826;9.238;2024-03-07T06:38:49;49.33;;;30.00;;
49860;SDS011;35761;48.826;9.238;2024-03-07T06:41:14;51.70;;;30.23;;
49860;SDS011;35761;48.826;9.238;2024-03-07T06:43:43;55.38;;;31.60;;
49860;SDS011;35761;48.826;9.238;2024-03-07T06:46:14;49.40;;;31.08;;
49860;SDS011;35761;48.826;9.238;2024-03-07T06:48:44;47.03;;;28.23;;
49860;SDS011;35761;48.826;9.238;2024-03-07T06:51:09;43.92;;;28.17;;
49860;SDS011;35761;48.826;9.238;2024-03-07T06:53:35;48.83;;;27.70;;
49860;SDS011;35761;48.826;9.238;2024-03-07T06:56:01;54.15;;;29.10;;
49860;SDS011;35761;48.826;9.238;2024-03-07T06:58:26;46.90;;;29.02;;
49860;SDS011;35761;48.826;9.238;2024-03-07T07:00:52;44.30;;;28.25;;
49860;SDS011;35761;48.826;9.238;2024-03-07T07:03:22;46.58;;;28.52;;
49860;SDS011;35761;48.826;9.238;2024-03-07T07:05:49;42.45;;;27.23;;
49860;SDS011;35761;48.826;9.238;2024-03-07T07:08:15;46.35;;;29.63;;
49860;SDS011;35761;48.826;9.238;2024-03-07T07:10:41;47.45;;;28.40;;
49860;SDS011;35761;48.826;9.238;2024-03-07T07:13:07;40.05;;;26.48;;
49860;SDS011;35761;48.826;9.238;2024-03-07T07:15:36;48.60;;;28.20;;
49860;SDS011;35761;48.826;9.238;2024-03-07T07:18:02;44.70;;;27.33;;
49860;SDS011;35761;48.826;9.238;2024-03-07T07:20:28;45.17;;;27.63;;
49860;SDS011;35761;48.826;9.238;2024-03-07T07:22:54;44.60;;;27.20;;
49860;SDS011;35761;48.826;9.238;2024-03-07T07:25:20;48.08;;;29.05;;
49860;SDS011;35761;48.826;9.238;2024-03-07T07:27:47;47.63;;;28.02;;
49860;SDS011;35761;48.826;9.238;2024-03-07T07:30:14;45.92;;;28.17;;
49860;SDS011;35761;48.826;9.238;2024-03-07T07:32:41;49.95;;;27.40;;
49860;SDS011;35761;48.826;9.238;2024-03-07T07:35:08;45.60;;;27.83;;
49860;SDS011;35761;48.826;9.238;2024-03-07T07:37:46;50.75;;;27.88;;
49860;SDS011;35761;48.826;9.238;2024-03-07T07:40:17;51.97;;;30.90;;
49860;SDS011;35761;48.826;9.238;2024-03-07T07:42:44;47.85;;;28.48;;
49860;SDS011;35761;48.826;9.238;2024-03-07T07:45:12;48.45;;;27.00;;
49860;SDS011;35761;48.826;9.238;2024-03-07T07:47:45;46.85;;;28.00;;
49860;SDS011;35761;48.826;9.238;2024-03-07T07:50:14;47.83;;;27.60;;
49860;SDS011;35761;48.826;9.238;2024-03-07T07:52:44;45.85;;;27.52;;
49860;SDS011;35761;48.826;9.238;2024-03-07T07:55:11;43.72;;;27.88;;
49860;SDS011;35761;48.826;9.238;2024-03-07T07:57:43;43.63;;;26.38;;
49860;SDS011;35761;48.826;9.238;2024-03-07T08:00:16;43.03;;;24.85;;
49860;SDS011;35761;48.826;9.238;2024-03-07T08:02:49;43.45;;;24.92;;
49860;SDS011;35761;48.826;9.238;2024-03-07T08:05:16;37.10;;;24.83;;
49860;SDS011;35761;48.826;9.238;2024-03-07T08:07:44;38.42;;;25.13;;
49860;SDS011;35761;48.826;9.238;2024-03-07T08:10:11;42.25;;;25.90;;
49860;SDS011;35761;48.826;9.238;2024-03-07T08:12:37;37.88;;;23.67;;
49860;SDS011;35761;48.826;9.238;2024-03-07T08:15:03;34.35;;;24.20;;
49860;SDS011;35761;48.826;9.238;2024-03-07T08:17:30;36.65;;;23.60;;
49860;SDS011;35761;48.826;9.238;2024-03-07T08:19:56;41.65;;;23.70;;
49860;SDS011;35761;48.826;9.238;2024-03-07T08:22:22;37.95;;;24.73;;
49860;SDS011;35761;48.826;9.238;2024-03-07T08:24:49;38.80;;;23.92;;
49860;SDS011;35761;48.826;9.238;2024-03-07T08:27:14;38.05;;;23.95;;
49860;SDS011;35761;48.826;9.238;2024-03-07T08:29:40;37.20;;;22.27;;
49860;SDS011;35761;48.826;9.238;2024-03-07T08:32:05;34.38;;;23.67;;
49860;SDS011;35761;48.826;9.238;2024-03-07T08:34:34;31.42;;;21.60;;
49860;SDS011;35761;48.826;9.238;2024-03-07T08:37:00;36.65;;;21.38;;
49860;SDS011;35761;48.826;9.238;2024-03-07T08:39:25;35.45;;;21.55;;
49860;SDS011;35761;48.826;9.238;2024-03-07T08:41:51;33.25;;;20.05;;
49860;SDS011;35761;48.826;9.238;2024-03-07T08:44:18;39.38;;;24.08;;
49860;SDS011;35761;48.826;9.238;2024-03-07T08:46:43;36.40;;;22.75;;
49860;SDS011;35761;48.826;9.238;2024-03-07T08:49:09;30.33;;;19.95;;
49860;SDS011;35761;48.826;9.238;2024-03-07T08:51:36;34.42;;;22.20;;
49860;SDS011;35761;48.826;9.238;2024-03-07T08:54:02;29.67;;;20.27;;
49860;SDS011;35761;48.826;9.238;2024-03-07T08:56:27;35.00;;;20.60;;
49860;SDS011;35761;48.826;9.238;2024-03-07T08:58:53;31.63;;;20.85;;
49860;SDS011;35761;48.826;9.238;2024-03-07T09:01:19;31.13;;;21.00;;
49860;SDS011;35761;48.826;9.238;2024-03-07T09:03:45;29.83;;;20.92;;
49860;SDS011;35761;48.826;9.238;2024-03-07T09:06:14;33.83;;;22.58;;
49860;SDS011;35761;48.826;9.238;2024-03-07T09:08:41;35.80;;;20.80;;
49860;SDS011;35761;48.826;9.238;2024-03-07T09:11:07;32.85;;;20.88;;
49860;SDS011;35761;48.826;9.238;2024-03-07T09:13:32;33.63;;;21.15;;
49860;SDS011;35761;48.826;9.238;2024-03-07T09:15:57;34.90;;;24.10;;
49860;SDS011;35761;48.826;9.238;2024-03-07T09:18:23;36.63;;;23.73;;
49860;SDS011;35761;48.826;9.238;2024-03-07T09:20:50;34.80;;;21.67;;
49860;SDS011;35761;48.826;9.238;2024-03-07T09:23:16;34.60;;;22.52;;
49860;SDS011;35761;48.826;9.238;2024-03-07T09:25:41;35.53;;;22.33;;
49860;SDS011;35761;48.826;9.238;2024-03-07T09:28:08;32.90;;;21.77;;
49860;SDS011;35761;48.826;9.238;2024-03-07T09:30:33;30.85;;;20.95;;
49860;SDS011;35761;48.826;9.238;2024-03-07T09:33:00;31.70;;;21.20;;
49860;SDS011;35761;48.826;9.238;2024-03-07T09:35:26;33.63;;;22.67;;
49860;SDS011;35761;48.826;9.238;2024-03-07T09:37:52;34.08;;;22.33;;
49860;SDS011;35761;48.826;9.238;2024-03-07T09:40:18;37.03;;;22.77;;
49860;SDS011;35761;48.826;9.238;2024-03-07T09:42:49;40.03;;;23.77;;
49860;SDS011;35761;48.826;9.238;2024-03-07T09:45:18;38.28;;;21.83;;
49860;SDS011;35761;48.826;9.238;2024-03-07T09:47:45;34.42;;;22.65;;
49860;SDS011;35761;48.826;9.238;2024-03-07T09:50:17;34.70;;;22.67;;
49860;SDS011;35761;48.826;9.238;2024-03-07T09:52:49;54.42;;;37.47;;
49860;SDS011;35761;48.826;9.238;2024-03-07T09:55:16;39.88;;;25.85;;
49860;SDS011;35761;48.826;9.238;2024-03-07T09:57:46;34.60;;;22.83;;
49860;SDS011;35761;48.826;9.238;2024-03-07T10:00:13;43.05;;;24.02;;
49860;SDS011;35761;48.826;9.238;2024-03-07T10:02:58;39.10;;;23.38;;
49860;SDS011;35761;48.826;9.238;2024-03-07T10:05:27;33.35;;;23.52;;
49860;SDS011;35761;48.826;9.238;2024-03-07T10:07:53;33.50;;;22.08;;
49860;SDS011;35761;48.826;9.238;2024-03-07T10:10:19;42.75;;;23.90;;
49860;SDS011;35761;48.826;9.238;2024-03-07T10:12:45;35.90;;;23.92;;
49860;SDS011;35761;48.826;9.238;2024-03-07T10:15:11;38.15;;;23.98;;
49860;SDS011;35761;48.826;9.238;2024-03-07T10:17:38;41.35;;;24.08;;
49860;SDS011;35761;48.826;9.238;2024-03-07T10:20:05;34.90;;;22.65;;
49860;SDS011;35761;48.826;9.238;2024-03-07T10:22:37;36.88;;;22.25;;
49860;SDS011;35761;48.826;9.238;2024-03-07T10:25:03;34.78;;;22.60;;
49860;SDS011;35761;48.826;9.238;2024-03-07T10:27:28;36.15;;;24.27;;
49860;SDS011;35761;48.826;9.238;2024-03-07T10:29:54;38.60;;;24.05;;
49860;SDS011;35761;48.826;9.238;2024-03-07T10:32:21;36.13;;;22.45;;
49860;SDS011;35761;48.826;9.238;2024-03-07T10:34:47;41.20;;;25.17;;
49860;SDS011;35761;48.826;9.238;2024-03-07T10:37:15;44.17;;;25.65;;
49860;SDS011;35761;48.826;9.238;2024-03-07T10:39:45;39.10;;;23.50;;
49860;SDS011;35761;48.826;9.238;2024-03-07T10:42:14;39.30;;;23.98;;
49860;SDS011;35761;48.826;9.238;2024-03-07T10:44:47;42.50;;;23.33;;
49860;SDS011;35761;48.826;9.238;2024-03-07T10:47:15;41.35;;;25.50;;
49860;SDS011;35761;48.826;9.238;2024-03-07T10:49:53;37.30;;;24.20;;
49860;SDS011;35761;48.826;9.238;2024-03-07T10:52:35;46.95;;;27.58;;
49860;SDS011;35761;48.826;9.238;2024-03-07T10:58:01;43.80;;;25.15;;
49860;SDS011;35761;48.826;9.238;2024-03-07T11:00:28;37.75;;;23.83;;
49860;SDS011;35761;48.826;9.238;2024-03-07T11:03:00;37.65;;;24.02;;
49860;SDS011;35761;48.826;9.238;2024-03-07T11:05:27;40.33;;;23.77;;
49860;SDS011;35761;48.826;9.238;2024-03-07T11:08:00;35.53;;;23.45;;
49860;SDS011;35761;48.826;9.238;2024-03-07T11:10:39;35.95;;;23.48;;
49860;SDS011;35761;48.826;9.238;2024-03-07T11:13:06;36.45;;;23.75;;
49860;SDS011;35761;48.826;9.238;2024-03-07T11:15:34;38.95;;;25.85;;
49860;SDS011;35761;48.826;9.238;2024-03-07T11:18:01;42.25;;;23.45;;
49860;SDS011;35761;48.826;9.238;2024-03-07T11:20:35;38.45;;;24.67;;
49860;SDS011;35761;48.826;9.238;2024-03-07T11:23:24;35.75;;;23.42;;
49860;SDS011;35761;48.826;9.238;2024-03-07T11:26:07;35.33;;;23.50;;
49860;SDS011;35761;48.826;9.238;2024-03-07T11:28:34;38.58;;;23.80;;
49860;SDS011;35761;48.826;9.238;2024-03-07T11:36:44;40.58;;;24.63;;
49860;SDS011;35761;48.826;9.238;2024-03-07T11:42:08;37.45;;;24.17;;
49860;SDS011;35761;48.826;9.238;2024-03-07T11:44:34;40.13;;;24.33;;
49860;SDS011;35761;48.826;9.238;2024-03-07T11:47:02;43.03;;;25.23;;
49860;SDS011;35761;48.826;9.238;2024-03-07T11:49:36;38.00;;;22.92;;
49860;SDS011;35761;48.826;9.238;2024-03-07T11:52:03;34.38;;;23.15;;
49860;SDS011;35761;48.826;9.238;2024-03-07T11:54:41;33.88;;;22.90;;
49860;SDS011;35761;48.826;9.238;2024-03-07T11:59:44;37.08;;;23.50;;
49860;SDS011;35761;48.826;9.238;2024-03-07T12:02:14;39.08;;;25.38;;
49860;SDS011;35761;48.826;9.238;2024-03-07T12:04:43;36.70;;;24.95;;
49860;SDS011;35761;48.826;9.238;2024-03-07T12:07:09;40.15;;;25.23;;
49860;SDS011;35761;48.826;9.238;2024-03-07T12:09:36;37.75;;;24.17;;
49860;SDS011;35761;48.826;9.238;2024-03-07T12:12:03;38.25;;;24.40;;
49860;SDS011;35761;48.826;9.238;2024-03-07T12:14:32;39.63;;;24.30;;
49860;SDS011;35761;48.826;9.238;2024-03-07T12:16:59;35.70;;;23.38;;
49860;SDS011;35761;48.826;9.238;2024-03-07T12:19:26;37.40;;;23.48;;
49860;SDS011;35761;48.826;9.238;2024-03-07T12:21:56;32.72;;;22.92;;
49860;SDS011;35761;48.826;9.238;2024-03-07T12:24:22;37.75;;;23.98;;
49860;SDS011;35761;48.826;9.238;2024-03-07T12:26:48;36.38;;;24.10;;
49860;SDS011;35761;48.826;9.238;2024-03-07T12:29:14;38.72;;;25.00;;
49860;SDS011;35761;48.826;9.238;2024-03-07T12:31:43;40.67;;;25.90;;
49860;SDS011;35761;48.826;9.238;2024-03-07T12:34:08;36.97;;;24.48;;
49860;SDS011;35761;48.826;9.238;2024-03-07T12:36:37;37.03;;;23.63;;
49860;SDS011;35761;48.826;9.238;2024-03-07T12:41:51;38.63;;;24.20;;
49860;SDS011;35761;48.826;9.238;2024-03-07T12:44:21;39.28;;;24.02;;
49860;SDS011;35761;48.826;9.238;2024-03-07T12:46:48;41.30;;;25.00;;
49860;SDS011;35761;48.826;9.238;2024-03-07T12:49:14;36.10;;;24.60;;
49860;SDS011;35761;48.826;9.238;2024-03-07T12:51:41;37.35;;;25.95;;
49860;SDS011;35761;48.826;9.238;2024-03-07T12:54:07;41.17;;;25.13;;
49860;SDS011;35761;48.826;9.238;2024-03-07T12:56:35;35.33;;;24.90;;
49860;SDS011;35761;48.826;9.238;2024-03-07T12:59:05;41.05;;;25.40;;
49860;SDS011;35761;48.826;9.238;2024-03-07T13:01:37;37.60;;;23.63;;
49860;SDS011;35761;48.826;9.238;2024-03-07T13:04:10;35.75;;;23.85;;
49860;SDS011;35761;48.826;9.238;2024-03-07T13:06:36;38.40;;;23.98;;
49860;SDS011;35761;48.826;9.238;2024-03-07T13:09:02;37.78;;;22.15;;
49860;SDS011;35761;48.826;9.238;2024-03-07T13:11:35;30.92;;;22.20;;
49860;SDS011;35761;48.826;9.238;2024-03-07T13:14:06;33.45;;;21.58;;
49860;SDS011;35761;48.826;9.238;2024-03-07T13:16:32;34.47;;;22.48;;
49860;SDS011;35761;48.826;9.238;2024-03-07T13:18:58;33.88;;;21.90;;
49860;SDS011;35761;48.826;9.238;2024-03-07T13:21:24;32.08;;;22.70;;
49860;SDS011;35761;48.826;9.238;2024-03-07T13:23:52;32.97;;;21.45;;
49860;SDS011;35761;48.826;9.238;2024-03-07T13:26:20;35.20;;;22.95;;
49860;SDS011;35761;48.826;9.238;2024-03-07T13:28:51;37.47;;;24.00;;
49860;SDS011;35761;48.826;9.238;2024-03-07T13:31:18;35.33;;;22.13;;
49860;SDS011;35761;48.826;9.238;2024-03-07T13:33:45;35.92;;;23.60;;
49860;SDS011;35761;48.826;9.238;2024-03-07T13:36:11;35.15;;;23.60;;
49860;SDS011;35761;48.826;9.238;2024-03-07T13:38:36;37.67;;;23.48;;
49860;SDS011;35761;48.826;9.238;2024-03-07T13:41:03;37.40;;;24.92;;
49860;SDS011;35761;48.826;9.238;2024-03-07T13:43:32;35.03;;;23.90;;
49860;SDS011;35761;48.826;9.238;2024-03-07T13:45:59;41.58;;;25.83;;
49860;SDS011;35761;48.826;9.238;2024-03-07T13:48:25;40.20;;;25.67;;
49860;SDS011;35761;48.826;9.238;2024-03-07T13:50:50;41.47;;;25.50;;
49860;SDS011;35761;48.826;9.238;2024-03-07T13:53:18;33.80;;;24.23;;
49860;SDS011;35761;48.826;9.238;2024-03-07T14:07:20;39.28;;;24.85;;
49860;SDS011;35761;48.826;9.238;2024-03-07T14:13:06;40.28;;;24.45;;
49860;SDS011;35761;48.826;9.238;2024-03-07T14:21:44;38.20;;;25.20;;
49860;SDS011;35761;48.826;9.238;2024-03-07T14:24:50;38.97;;;25.73;;
49860;SDS011;35761;48.826;9.238;2024-03-07T14:33:00;40.08;;;25.58;;
49860;SDS011;35761;48.826;9.238;2024-03-07T14:35:31;45.03;;;28.25;;
49860;SDS011;35761;48.826;9.238;2024-03-07T14:38:04;38.92;;;26.05;;
49860;SDS011;35761;48.826;9.238;2024-03-07T14:40:31;40.67;;;25.70;;
49860;SDS011;35761;48.826;9.238;2024-03-07T14:42:56;38.70;;;26.00;;
49860;SDS011;35761;48.826;9.238;2024-03-07T14:45:28;37.90;;;25.63;;
49860;SDS011;35761;48.826;9.238;2024-03-07T14:47:57;37.78;;;25.17;;
49860;SDS011;35761;48.826;9.238;2024-03-07T14:50:22;41.03;;;25.83;;
49860;SDS011;35761;48.826;9.238;2024-03-07T14:52:49;35.80;;;24.77;;
49860;SDS011;35761;48.826;9.238;2024-03-07T14:55:15;39.70;;;24.15;;
49860;SDS011;35761;48.826;9.238;2024-03-07T14:57:44;35.22;;;22.52;;
49860;SDS011;35761;48.826;9.238;2024-03-07T15:00:11;35.72;;;22.70;;
49860;SDS011;35761;48.826;9.238;2024-03-07T15:02:47;36.95;;;24.75;;
49860;SDS011;35761;48.826;9.238;2024-03-07T15:05:14;40.50;;;24.67;;
49860;SDS011;35761;48.826;9.238;2024-03-07T15:07:45;38.97;;;22.88;;